Time;durP1;ratioP1;P1;durP2;ratioP2;P2;SDS_P1;SDS_P2;PMS_P1;PMS_P2;Temp;Humidity;BMP_temperature;BMP_pressure;BME280_temperature;BME280_humidity;BME280_pressure;Samples;Min_cycle;Max_cycle;Signal;HPM_P1;HPM_P2
2023/01/29 00:01:49;;;;;;;23.92;13.85;;;-1.00;99.90;;;;;;5002657;28;20461;-75
2023/01/29 00:04:15;;;;;;;28.88;13.95;;;-0.80;99.90;;;;;;5054273;28;20072;-75
2023/01/29 00:06:40;;;;;;;27.85;14.38;;;-0.90;99.90;;;;;;5040023;28;20106;-76
2023/01/29 00:09:06;;;;;;;23.33;13.55;;;-0.80;99.90;;;;;;5039131;28;20044;-75
2023/01/29 00:11:32;;;;;;;27.73;14.68;;;-0.80;99.90;;;;;;5017775;28;20434;-75
2023/01/29 00:13:58;;;;;;;24.33;14.43;;;-0.90;99.90;;;;;;5020861;28;20048;-76
2023/01/29 00:16:23;;;;;;;35.55;18.83;;;-0.90;99.90;;;;;;5076425;28;20045;-76
2023/01/29 00:18:49;;;;;;;31.65;15.32;;;-0.90;99.90;;;;;;5066011;28;20416;-76
2023/01/29 00:21:16;;;;;;;32.58;16.65;;;-0.90;99.90;;;;;;5020811;28;20049;-75
2023/01/29 00:23:43;;;;;;;29.40;14.77;;;-0.90;99.90;;;;;;5051635;28;20057;-76
2023/01/29 00:26:09;;;;;;;22.42;14.07;;;-0.90;99.90;;;;;;5059061;28;20033;-76
2023/01/29 00:28:35;;;;;;;25.85;14.07;;;-0.80;99.90;;;;;;5066037;28;20087;-76
2023/01/29 00:31:12;;;;;;;23.65;14.23;;;-0.80;99.90;;;;;;5040817;28;20163;-76
2023/01/29 00:33:37;;;;;;;27.48;14.07;;;-0.90;99.90;;;;;;5031769;28;20048;-76
2023/01/29 00:36:08;;;;;;;28.15;14.05;;;-0.80;99.90;;;;;;5058841;28;20041;-76
2023/01/29 00:38:34;;;;;;;25.92;14.40;;;-0.70;99.90;;;;;;5035569;28;20110;-76
2023/01/29 00:46:39;;;;;;;24.95;13.52;;;-0.60;99.90;;;;;;5061166;28;20045;-75
2023/01/29 00:49:05;;;;;;;22.92;14.32;;;-0.60;99.90;;;;;;5016718;28;20044;-74
2023/01/29 00:51:31;;;;;;;22.38;13.57;;;-0.70;99.90;;;;;;5021341;28;20044;-74
2023/01/29 00:53:57;;;;;;;24.85;14.27;;;-0.60;99.90;;;;;;5063656;28;20369;-74
2023/01/29 00:56:24;;;;;;;25.67;13.70;;;-0.60;99.90;;;;;;5034728;28;20049;-74
2023/01/29 00:58:50;;;;;;;24.67;14.10;;;-0.50;99.90;;;;;;5054777;28;20076;-75
2023/01/29 01:01:15;;;;;;;24.30;13.00;;;-0.60;99.90;;;;;;5037843;28;20079;-75
2023/01/29 01:03:41;;;;;;;22.08;12.63;;;-0.60;99.90;;;;;;5037697;28;20059;-75
2023/01/29 01:06:09;;;;;;;22.40;13.13;;;-0.60;99.90;;;;;;5042114;28;20041;-75
2023/01/29 01:11:19;;;;;;;23.42;13.23;;;-0.50;99.90;;;;;;5051653;28;20136;-75
2023/01/29 01:13:45;;;;;;;23.33;12.77;;;-0.50;99.90;;;;;;5055129;28;20044;-75
2023/01/29 01:16:12;;;;;;;22.80;11.73;;;-0.60;99.90;;;;;;5028987;28;20045;-74
2023/01/29 01:18:38;;;;;;;24.10;13.27;;;-0.50;99.90;;;;;;5058051;28;20037;-75
2023/01/29 01:21:04;;;;;;;27.05;14.82;;;-0.50;99.90;;;;;;5061542;28;20045;-74
2023/01/29 01:23:30;;;;;;;22.38;13.63;;;-0.50;99.90;;;;;;5041859;28;20049;-75
2023/01/29 01:25:55;;;;;;;23.95;13.82;;;-0.50;99.90;;;;;;5041931;28;20038;-75
2023/01/29 01:28:21;;;;;;;26.75;14.05;;;-0.50;99.90;;;;;;5052517;28;20049;-74
2023/01/29 01:30:47;;;;;;;21.95;13.07;;;-0.50;99.90;;;;;;5062401;28;20103;-74
2023/01/29 01:33:13;;;;;;;22.90;13.07;;;-0.40;99.90;;;;;;5030079;28;20768;-74
2023/01/29 01:35:39;;;;;;;23.08;13.85;;;-0.50;99.90;;;;;;5055892;28;20045;-74
2023/01/29 01:38:05;;;;;;;22.08;13.43;;;-0.50;99.90;;;;;;5041147;28;20083;-75
2023/01/29 01:40:31;;;;;;;25.48;14.27;;;-0.40;99.90;;;;;;5018106;28;20053;-74
2023/01/29 01:42:58;;;;;;;20.58;12.13;;;-0.40;99.90;;;;;;5016503;28;20482;-75
2023/01/29 01:45:34;;;;;;;26.17;13.93;;;-0.40;99.90;;;;;;5055626;28;20052;-75
2023/01/29 01:48:25;;;;;;;25.88;13.95;;;-0.40;99.90;;;;;;5076648;28;20053;-74
2023/01/29 01:50:53;;;;;;;23.20;13.82;;;-0.40;99.90;;;;;;5044727;28;20045;-75
2023/01/29 01:53:25;;;;;;;25.80;14.03;;;-0.40;99.90;;;;;;5059410;28;20052;-74
2023/01/29 01:55:59;;;;;;;26.77;13.50;;;-0.30;99.90;;;;;;5062726;28;20037;-74
2023/01/29 01:58:31;;;;;;;23.95;13.75;;;-0.30;99.90;;;;;;5075574;28;20037;-74
2023/01/29 02:00:57;;;;;;;22.65;12.93;;;-0.40;99.90;;;;;;5062674;28;20045;-74
2023/01/29 02:11:57;;;;;;;26.38;13.93;;;-0.40;99.90;;;;;;5041623;28;20082;-75
2023/01/29 02:14:27;;;;;;;24.48;13.98;;;-0.30;99.90;;;;;;5066849;28;20044;-74
2023/01/29 02:16:55;;;;;;;24.25;13.27;;;-0.30;99.90;;;;;;5053783;28;20056;-75
2023/01/29 02:20:06;;;;;;;23.90;13.45;;;-0.10;99.90;;;;;;5053770;28;20471;-75
2023/01/29 02:23:01;;;;;;;24.77;14.65;;;-0.20;99.90;;;;;;5039996;28;20209;-75
2023/01/29 02:25:47;;;;;;;26.88;13.88;;;-0.20;99.90;;;;;;5061876;28;20047;-74
2023/01/29 02:28:13;;;;;;;22.60;13.02;;;-0.10;99.90;;;;;;5058304;28;20451;-74
2023/01/29 02:31:15;;;;;;;26.02;14.43;;;-0.10;99.90;;;;;;5068850;28;20111;-74
2023/01/29 02:33:58;;;;;;;23.80;13.55;;;-0.20;99.90;;;;;;5071337;28;20045;-74
2023/01/29 02:36:39;;;;;;;21.85;12.57;;;-0.10;99.90;;;;;;5046609;28;20048;-74
2023/01/29 02:39:11;;;;;;;22.40;13.02;;;0.00;99.90;;;;;;5074755;28;20047;-74
2023/01/29 02:41:55;;;;;;;26.67;13.43;;;0.00;99.90;;;;;;5075751;28;20044;-73
2023/01/29 02:44:23;;;;;;;26.67;12.60;;;0.10;99.90;;;;;;5085692;28;20055;-74
2023/01/29 02:46:55;;;;;;;24.15;12.98;;;0.10;99.90;;;;;;5053042;28;20069;-74
2023/01/29 02:49:51;;;;;;;25.00;14.77;;;0.10;99.90;;;;;;5061013;28;20135;-74
2023/01/29 02:52:32;;;;;;;25.42;14.75;;;0.10;99.90;;;;;;5036941;28;20033;-73
2023/01/29 02:55:03;;;;;;;25.13;14.27;;;0.10;99.90;;;;;;5058171;28;20470;-74
2023/01/29 02:57:34;;;;;;;23.60;13.35;;;0.10;99.90;;;;;;5035750;28;20078;-73
2023/01/29 03:00:24;;;;;;;23.48;13.77;;;0.20;99.90;;;;;;5046260;28;20045;-74
2023/01/29 03:02:53;;;;;;;29.15;13.90;;;0.20;99.90;;;;;;5035161;28;20187;-75
2023/01/29 03:05:23;;;;;;;26.20;12.98;;;0.30;99.90;;;;;;5029735;28;20688;-75
2023/01/29 03:07:52;;;;;;;23.48;14.02;;;0.20;99.90;;;;;;5025334;28;20041;-75
2023/01/29 03:10:24;;;;;;;27.63;14.25;;;0.20;99.90;;;;;;5036533;28;20040;-76
2023/01/29 03:12:58;;;;;;;23.73;13.50;;;0.40;99.90;;;;;;5061870;28;20472;-75
2023/01/29 03:15:30;;;;;;;24.80;13.95;;;0.20;99.90;;;;;;5049244;28;20045;-76
2023/01/29 03:18:01;;;;;;;30.23;14.82;;;0.20;99.90;;;;;;5061995;28;20044;-75
2023/01/29 03:20:33;;;;;;;26.45;14.52;;;0.20;99.90;;;;;;5034721;28;20122;-75
2023/01/29 03:23:10;;;;;;;25.55;14.25;;;0.20;99.90;;;;;;5036407;28;20044;-75
2023/01/29 03:33:58;;;;;;;25.33;14.82;;;0.30;99.90;;;;;;5049439;28;20045;-75
2023/01/29 03:36:54;;;;;;;26.10;14.65;;;0.30;99.90;;;;;;5024084;28;20056;-75
2023/01/29 03:39:20;;;;;;;25.08;14.23;;;0.20;99.90;;;;;;5034933;28;20140;-75
2023/01/29 03:41:53;;;;;;;28.77;15.15;;;0.20;99.90;;;;;;5038746;28;20432;-75
2023/01/29 03:44:21;;;;;;;32.38;15.82;;;0.20;99.90;;;;;;5057301;28;20064;-75
2023/01/29 03:46:52;;;;;;;32.65;16.10;;;0.20;99.90;;;;;;5074118;28;20057;-75
2023/01/29 03:49:33;;;;;;;29.63;16.65;;;0.20;99.90;;;;;;5044802;28;20045;-74
2023/01/29 03:52:17;;;;;;;29.45;15.52;;;0.20;99.90;;;;;;5037961;28;20052;-74
2023/01/29 03:55:05;;;;;;;29.95;15.57;;;0.20;99.90;;;;;;5047763;28;20076;-75
2023/01/29 03:57:40;;;;;;;30.08;16.83;;;0.20;99.90;;;;;;5037693;28;20549;-76
2023/01/29 04:00:09;;;;;;;30.45;16.00;;;0.20;99.90;;;;;;5050077;28;20469;-75
2023/01/29 04:02:58;;;;;;;28.00;15.93;;;0.10;99.90;;;;;;5041018;28;20690;-76
2023/01/29 04:05:26;;;;;;;28.33;14.77;;;0.10;99.90;;;;;;5032646;28;20082;-73
2023/01/29 04:07:54;;;;;;;;;;;0.10;99.90;;;;;;5041861;28;20049;-74
2023/01/29 04:10:21;;;;;;;29.90;15.38;;;0.20;99.90;;;;;;5044212;28;20318;-73
2023/01/29 04:12:59;;;;;;;28.50;15.25;;;0.20;99.90;;;;;;5020881;28;20111;-74
2023/01/29 04:15:26;;;;;;;28.02;15.50;;;0.10;99.90;;;;;;5022813;28;20041;-73
2023/01/29 04:17:52;;;;;;;28.00;14.52;;;0.10;99.90;;;;;;5062084;28;20068;-73
2023/01/29 04:20:19;;;;;;;27.00;14.90;;;0.10;99.90;;;;;;5068463;28;20065;-74
2023/01/29 04:22:46;;;;;;;29.27;16.77;;;0.20;99.90;;;;;;5048610;28;20041;-74
2023/01/29 04:25:18;;;;;;;26.73;14.82;;;0.10;99.90;;;;;;5028008;28;20331;-73
2023/01/29 04:28:05;;;;;;;30.02;15.48;;;0.10;99.90;;;;;;5034885;28;20044;-73
2023/01/29 04:30:37;;;;;;;30.80;17.47;;;0.10;99.90;;;;;;5035036;28;20051;-74
2023/01/29 04:33:10;;;;;;;28.58;15.20;;;-0.10;99.90;;;;;;5018268;28;20053;-74
2023/01/29 04:35:53;;;;;;;25.70;14.23;;;-0.10;99.90;;;;;;5030681;28;20060;-75
2023/01/29 04:38:31;;;;;;;29.17;15.43;;;-0.10;99.90;;;;;;5041743;28;20132;-75
2023/01/29 04:41:03;;;;;;;28.52;14.82;;;-0.10;99.90;;;;;;5049325;28;20152;-75
2023/01/29 04:43:35;;;;;;;28.65;15.93;;;-0.10;99.90;;;;;;5049622;28;20041;-75
2023/01/29 04:46:35;;;;;;;25.92;14.68;;;-0.10;99.90;;;;;;5048413;28;20045;-75
2023/01/29 04:49:12;;;;;;;25.50;14.95;;;-0.10;99.90;;;;;;5042477;28;20068;-75
2023/01/29 04:52:04;;;;;;;28.48;14.70;;;-0.10;99.90;;;;;;5020034;28;20041;-76
2023/01/29 04:54:53;;;;;;;28.52;15.23;;;-0.10;99.90;;;;;;5050026;28;20056;-75
2023/01/29 04:57:46;;;;;;;29.00;16.05;;;-0.20;99.90;;;;;;5071854;28;20355;-76
2023/01/29 05:00:15;;;;;;;26.83;14.95;;;-0.10;99.90;;;;;;5047134;28;20400;-74
2023/01/29 05:02:41;;;;;;;29.55;15.93;;;-0.20;99.90;;;;;;5043883;28;20080;-74
2023/01/29 05:05:07;;;;;;;25.60;14.15;;;-0.30;99.90;;;;;;5067296;28;20076;-75
2023/01/29 05:07:36;;;;;;;27.75;16.50;;;-0.20;99.90;;;;;;5057829;28;20056;-75
2023/01/29 05:10:03;;;;;;;29.85;15.52;;;-0.30;99.90;;;;;;5050792;28;20045;-75
2023/01/29 05:12:29;;;;;;;26.77;14.38;;;-0.30;99.90;;;;;;5060246;28;20041;-74
2023/01/29 05:14:56;;;;;;;31.45;16.67;;;-0.30;99.90;;;;;;5033414;28;20051;-74
2023/01/29 05:17:22;;;;;;;29.02;16.38;;;-0.20;99.90;;;;;;5037833;28;20137;-76
2023/01/29 05:19:48;;;;;;;30.15;16.55;;;-0.20;99.90;;;;;;5028381;28;20131;-75
2023/01/29 05:22:15;;;;;;;28.77;16.17;;;-0.20;99.90;;;;;;5069210;28;20053;-76
2023/01/29 05:24:41;;;;;;;27.85;15.40;;;-0.10;99.90;;;;;;5024479;28;20052;-75
2023/01/29 05:29:56;;;;;;;32.10;16.60;;;-0.20;99.90;;;;;;5059667;28;20131;-75
2023/01/29 05:32:23;;;;;;;34.53;16.05;;;-0.20;99.90;;;;;;5063849;28;20052;-75
2023/01/29 05:34:49;;;;;;;29.45;15.93;;;-0.10;99.90;;;;;;5043803;28;20140;-75
2023/01/29 05:37:15;;;;;;;28.50;16.75;;;-0.10;99.90;;;;;;5074483;28;20046;-75
2023/01/29 05:39:40;;;;;;;30.60;16.10;;;-0.10;99.90;;;;;;5064655;28;20049;-75
2023/01/29 05:42:06;;;;;;;32.75;17.05;;;-0.20;99.90;;;;;;5045453;28;20048;-75
2023/01/29 05:44:32;;;;;;;29.08;14.93;;;-0.10;99.90;;;;;;5054392;28;20182;-76
2023/01/29 05:47:01;;;;;;;30.63;15.73;;;-0.10;99.90;;;;;;5047039;28;20048;-75
2023/01/29 05:49:27;;;;;;;28.52;15.93;;;-0.10;99.90;;;;;;5085738;28;20041;-75
2023/01/29 05:51:53;;;;;;;29.98;16.23;;;-0.10;99.90;;;;;;5080869;28;20049;-76
2023/01/29 05:54:19;;;;;;;26.35;14.63;;;-0.10;99.90;;;;;;5076348;28;20099;-75
2023/01/29 05:56:44;;;;;;;29.65;16.25;;;-0.10;99.90;;;;;;5075964;28;20203;-74
2023/01/29 05:59:10;;;;;;;27.80;15.60;;;-0.10;99.90;;;;;;5039725;28;20099;-76
2023/01/29 06:01:36;;;;;;;30.52;16.65;;;-0.20;99.90;;;;;;5041068;28;20110;-75
2023/01/29 06:04:02;;;;;;;30.48;16.63;;;-0.20;99.90;;;;;;5063840;28;20098;-76
2023/01/29 06:06:27;;;;;;;33.17;17.02;;;-0.10;99.90;;;;;;5036575;28;20056;-76
2023/01/29 06:08:54;;;;;;;29.05;16.30;;;0.00;99.90;;;;;;5086691;28;20074;-75
2023/01/29 06:11:20;;;;;;;31.58;16.83;;;-0.10;99.90;;;;;;5085724;28;20044;-76
2023/01/29 06:13:47;;;;;;;33.83;18.02;;;0.00;99.90;;;;;;5034863;28;20758;-76
2023/01/29 06:16:12;;;;;;;32.30;17.55;;;0.00;99.90;;;;;;5059925;28;20041;-76
2023/01/29 06:18:38;;;;;;;31.73;17.33;;;0.00;99.90;;;;;;5051747;28;20051;-75
2023/01/29 06:21:05;;;;;;;34.90;17.13;;;0.20;99.90;;;;;;5062842;28;20041;-75
2023/01/29 06:23:31;;;;;;;31.80;17.05;;;0.10;99.90;;;;;;5058049;28;20049;-76
2023/01/29 06:26:03;;;;;;;31.10;16.60;;;0.10;99.90;;;;;;5067396;28;20056;-75
2023/01/29 06:28:29;;;;;;;31.83;18.15;;;0.10;99.90;;;;;;5034505;28;20052;-74
2023/01/29 06:31:00;;;;;;;30.27;17.48;;;0.20;99.90;;;;;;5041646;28;20053;-73
2023/01/29 06:33:26;;;;;;;29.48;16.40;;;0.10;99.90;;;;;;5062941;28;20496;-76
2023/01/29 06:36:02;;;;;;;31.00;16.55;;;0.10;99.90;;;;;;5008235;28;20049;-76
2023/01/29 06:38:28;;;;;;;32.05;16.38;;;0.20;99.90;;;;;;5063306;28;20076;-76
2023/01/29 06:40:54;;;;;;;32.42;15.93;;;0.10;99.90;;;;;;5007582;28;20095;-74
2023/01/29 06:43:21;;;;;;;30.70;16.40;;;0.20;99.90;;;;;;5046328;28;20427;-76
2023/01/29 06:45:51;;;;;;;31.08;15.77;;;0.10;99.90;;;;;;5045552;28;20049;-76
2023/01/29 06:48:17;;;;;;;29.70;15.75;;;0.10;99.90;;;;;;5038586;28;20041;-75
2023/01/29 06:50:43;;;;;;;32.50;16.83;;;0.20;99.90;;;;;;5036366;28;20052;-75
2023/01/29 06:53:10;;;;;;;34.88;18.40;;;0.10;99.90;;;;;;5049596;28;20032;-74
2023/01/29 06:55:36;;;;;;;33.05;17.20;;;0.10;99.90;;;;;;5026385;28;20053;-76
2023/01/29 06:58:10;;;;;;;33.38;16.67;;;0.20;99.90;;;;;;5037114;28;20480;-76
2023/01/29 07:00:36;;;;;;;34.28;16.95;;;0.20;99.90;;;;;;5045595;28;20055;-75
2023/01/29 07:03:03;;;;;;;33.75;17.65;;;0.20;99.90;;;;;;5007496;28;20041;-75
2023/01/29 07:05:28;;;;;;;31.70;17.10;;;0.20;99.90;;;;;;5052514;28;20127;-74
2023/01/29 07:07:54;;;;;;;35.38;19.52;;;0.20;99.90;;;;;;5008105;28;20098;-74
2023/01/29 07:10:20;;;;;;;36.63;18.38;;;0.20;99.90;;;;;;5016910;28;20070;-74
2023/01/29 07:12:46;;;;;;;34.25;17.20;;;0.20;99.90;;;;;;5021707;28;20040;-75
2023/01/29 07:15:12;;;;;;;32.22;17.75;;;0.20;99.90;;;;;;5043395;28;20095;-74
2023/01/29 07:17:38;;;;;;;35.17;18.45;;;0.10;99.90;;;;;;5052527;28;20128;-75
2023/01/29 07:20:04;;;;;;;34.55;16.98;;;0.20;99.90;;;;;;5003320;28;20138;-75
2023/01/29 07:22:30;;;;;;;32.00;16.58;;;0.20;99.90;;;;;;5019088;28;20104;-75
2023/01/29 07:24:56;;;;;;;35.30;18.25;;;0.30;99.90;;;;;;5038755;28;20388;-75
2023/01/29 07:27:22;;;;;;;32.38;17.85;;;0.40;99.90;;;;;;5067810;28;20048;-76
2023/01/29 07:29:48;;;;;;;30.85;17.05;;;0.40;99.90;;;;;;5000985;28;20513;-75
2023/01/29 07:32:14;;;;;;;38.22;17.45;;;0.40;99.90;;;;;;5055765;28;20053;-75
2023/01/29 07:34:39;;;;;;;33.22;16.42;;;0.40;99.90;;;;;;5030702;28;20037;-76
2023/01/29 07:37:05;;;;;;;35.65;18.30;;;0.40;99.90;;;;;;5068616;28;20055;-75
2023/01/29 07:39:31;;;;;;;31.60;17.90;;;0.40;99.90;;;;;;5034367;28;20111;-75
2023/01/29 07:41:57;;;;;;;33.10;17.08;;;0.40;99.90;;;;;;5061934;28;20110;-75
2023/01/29 07:44:24;;;;;;;36.28;17.63;;;0.40;99.90;;;;;;5027488;28;20052;-75
2023/01/29 07:46:50;;;;;;;35.57;18.00;;;0.40;99.90;;;;;;5085498;28;20033;-75
2023/01/29 07:49:16;;;;;;;34.55;17.42;;;0.50;99.90;;;;;;5016120;28;20272;-74
2023/01/29 07:51:41;;;;;;;31.70;16.67;;;0.40;99.90;;;;;;5055433;28;20046;-75
2023/01/29 07:54:07;;;;;;;31.65;17.38;;;0.40;99.90;;;;;;5072089;28;20052;-74
2023/01/29 07:56:33;;;;;;;35.47;16.58;;;0.50;99.90;;;;;;5026031;28;20053;-75
2023/01/29 07:58:59;;;;;;;32.80;16.80;;;0.50;99.90;;;;;;5062602;28;20041;-75
2023/01/29 08:01:24;;;;;;;33.15;16.90;;;0.60;99.90;;;;;;5022672;28;20041;-74
2023/01/29 08:03:50;;;;;;;31.67;17.88;;;0.50;99.90;;;;;;5046425;28;20456;-75
2023/01/29 08:06:16;;;;;;;32.17;16.20;;;0.50;99.90;;;;;;5080449;28;20064;-76
2023/01/29 08:08:42;;;;;;;31.98;17.30;;;0.50;99.90;;;;;;5024760;28;20046;-75
2023/01/29 08:11:07;;;;;;;34.72;16.48;;;0.60;99.90;;;;;;5016736;28;20796;-75
2023/01/29 08:13:33;;;;;;;33.58;16.92;;;0.60;99.90;;;;;;5033101;28;20120;-75
2023/01/29 08:16:00;;;;;;;33.42;15.50;;;0.50;99.90;;;;;;5046242;28;20335;-75
2023/01/29 08:18:26;;;;;;;32.75;15.60;;;0.60;99.90;;;;;;5054999;28;20786;-75
2023/01/29 08:20:51;;;;;;;37.97;19.65;;;0.50;99.90;;;;;;5021827;28;20044;-76
2023/01/29 08:23:17;;;;;;;35.63;19.45;;;0.50;99.90;;;;;;5043602;28;20049;-76
2023/01/29 08:25:43;;;;;;;35.22;18.23;;;0.70;99.90;;;;;;5029498;28;20128;-76
2023/01/29 08:28:10;;;;;;;37.70;18.42;;;0.50;99.90;;;;;;5049012;28;20124;-76
2023/01/29 08:30:36;;;;;;;38.05;18.58;;;0.60;99.90;;;;;;5062239;28;20190;-76
2023/01/29 08:33:02;;;;;;;39.28;19.30;;;0.50;99.90;;;;;;5051396;28;20436;-76
2023/01/29 08:35:28;;;;;;;35.78;18.67;;;0.50;99.90;;;;;;5059121;28;20124;-76
2023/01/29 08:37:55;;;;;;;37.83;19.67;;;0.60;99.90;;;;;;5049237;28;20186;-75
2023/01/29 08:40:21;;;;;;;40.60;20.13;;;0.60;99.90;;;;;;5039769;28;20125;-76
2023/01/29 08:42:47;;;;;;;39.75;20.20;;;0.60;99.90;;;;;;5062805;28;20469;-75
2023/01/29 08:45:13;;;;;;;38.58;19.45;;;0.60;99.90;;;;;;5078076;28;20067;-76
2023/01/29 08:47:45;;;;;;;38.40;18.38;;;0.60;99.90;;;;;;5033027;28;20048;-76
2023/01/29 08:50:10;;;;;;;43.10;20.70;;;0.60;99.90;;;;;;5006644;28;20049;-76
2023/01/29 08:52:36;;;;;;;41.22;19.95;;;0.70;99.90;;;;;;5052436;28;20074;-76
2023/01/29 08:55:02;;;;;;;42.35;19.67;;;0.70;99.90;;;;;;5050061;28;20041;-76
2023/01/29 08:57:28;;;;;;;38.25;20.05;;;0.70;99.90;;;;;;5065828;28;20123;-76
2023/01/29 08:59:53;;;;;;;40.40;20.10;;;0.70;99.90;;;;;;5079650;28;20064;-75
2023/01/29 09:02:19;;;;;;;39.00;20.05;;;0.60;99.90;;;;;;5072241;28;20152;-75
2023/01/29 09:04:45;;;;;;;38.08;19.58;;;0.60;99.90;;;;;;5059091;28;20477;-75
2023/01/29 09:07:11;;;;;;;40.28;21.80;;;0.70;99.90;;;;;;5036010;28;20041;-75
2023/01/29 09:09:37;;;;;;;43.50;20.40;;;0.70;99.90;;;;;;5039173;28;20049;-76
2023/01/29 09:12:03;;;;;;;36.75;17.98;;;0.80;99.90;;;;;;5033960;28;20343;-76
2023/01/29 09:14:29;;;;;;;37.70;19.33;;;0.60;99.90;;;;;;5009938;28;20049;-75
2023/01/29 09:16:54;;;;;;;44.45;20.30;;;0.70;99.90;;;;;;5038997;28;20466;-76
2023/01/29 09:19:20;;;;;;;41.53;20.13;;;0.60;99.90;;;;;;5044517;28;20108;-76
2023/01/29 09:21:46;;;;;;;45.90;20.70;;;0.60;99.90;;;;;;5052673;28;20045;-75
2023/01/29 09:24:12;;;;;;;40.35;20.52;;;0.50;99.90;;;;;;5029619;28;20151;-76
2023/01/29 09:26:38;;;;;;;41.90;20.35;;;0.60;99.90;;;;;;5024074;28;20072;-75
2023/01/29 09:29:06;;;;;;;41.60;20.63;;;0.60;99.90;;;;;;5063314;28;20045;-76
2023/01/29 09:31:32;;;;;;;42.22;20.45;;;0.60;99.90;;;;;;5065311;28;20074;-76
2023/01/29 09:33:58;;;;;;;41.58;20.85;;;0.60;99.90;;;;;;5082579;28;20040;-77
2023/01/29 09:36:23;;;;;;;41.72;19.60;;;0.60;99.90;;;;;;5082107;28;20690;-76
2023/01/29 09:38:49;;;;;;;39.28;19.67;;;0.70;99.90;;;;;;5055612;28;20079;-76
2023/01/29 09:41:21;;;;;;;43.58;19.65;;;0.70;99.90;;;;;;5067680;28;20091;-76
2023/01/29 09:43:49;;;;;;;38.95;20.20;;;0.70;99.90;;;;;;5070383;28;20098;-75
2023/01/29 09:46:17;;;;;;;39.90;20.50;;;0.60;99.90;;;;;;5047748;28;20812;-76
2023/01/29 09:48:44;;;;;;;40.95;22.30;;;0.70;99.90;;;;;;5050560;28;20180;-76
2023/01/29 09:51:16;;;;;;;37.92;21.23;;;0.70;99.90;;;;;;5065382;28;20047;-76
2023/01/29 09:53:46;;;;;;;43.72;20.40;;;0.60;99.90;;;;;;5064355;28;20052;-76
2023/01/29 09:56:18;;;;;;;38.60;19.80;;;0.60;99.90;;;;;;5022476;28;20037;-75
2023/01/29 09:58:44;;;;;;;38.53;18.83;;;0.70;99.90;;;;;;5034019;28;20465;-73
2023/01/29 10:01:36;;;;;;;43.00;20.65;;;0.70;99.90;;;;;;5013216;28;20060;-74
2023/01/29 10:04:15;;;;;;;39.40;18.90;;;0.70;99.90;;;;;;5063415;28;20046;-74
2023/01/29 10:07:08;;;;;;;43.92;21.42;;;0.70;99.90;;;;;;5042258;28;20040;-74
2023/01/29 10:09:59;;;;;;;45.72;21.98;;;0.80;99.90;;;;;;5048046;28;20111;-74
2023/01/29 10:12:41;;;;;;;37.58;18.73;;;0.90;99.90;;;;;;5052135;28;20037;-74
2023/01/29 10:15:27;;;;;;;40.63;21.85;;;0.90;99.90;;;;;;5032722;28;20076;-74
2023/01/29 10:18:35;;;;;;;41.28;23.10;;;0.80;99.90;;;;;;5052472;28;20051;-75
2023/01/29 10:21:10;;;;;;;39.42;20.95;;;0.90;99.90;;;;;;5049331;28;20056;-75
2023/01/29 10:24:01;;;;;;;40.88;21.73;;;0.90;99.90;;;;;;5050804;28;20040;-74
2023/01/29 10:26:27;;;;;;;38.28;18.90;;;1.00;99.90;;;;;;5046439;28;20377;-74
2023/01/29 10:28:54;;;;;;;36.85;19.42;;;1.00;99.90;;;;;;5052341;28;20126;-74
2023/01/29 10:31:37;;;;;;;46.92;21.23;;;1.10;99.90;;;;;;5036676;28;20068;-74
2023/01/29 10:34:42;;;;;;;40.00;19.17;;;1.00;99.90;;;;;;5067973;28;20136;-74
2023/01/29 10:37:22;;;;;;;36.92;18.02;;;1.00;99.90;;;;;;5028923;28;20045;-74
2023/01/29 10:39:47;;;;;;;35.50;19.05;;;1.10;99.90;;;;;;5075091;28;20131;-74
2023/01/29 10:42:44;;;;;;;39.33;21.17;;;1.10;99.90;;;;;;5086486;28;20152;-74
2023/01/29 10:45:28;;;;;;;38.63;19.65;;;1.00;99.90;;;;;;5060563;28;20206;-75
2023/01/29 10:48:05;;;;;;;41.97;20.55;;;1.00;99.90;;;;;;5073475;28;20052;-73
2023/01/29 10:50:58;;;;;;;41.50;19.15;;;1.00;99.90;;;;;;5070051;28;20783;-74
2023/01/29 10:54:01;;;;;;;42.22;20.50;;;1.00;99.90;;;;;;5043812;28;20135;-75
2023/01/29 10:56:51;;;;;;;40.00;18.83;;;1.10;99.90;;;;;;5044744;28;20045;-74
2023/01/29 10:59:17;;;;;;;45.03;21.08;;;1.00;99.90;;;;;;5021110;28;20037;-74
2023/01/29 11:01:43;;;;;;;41.67;21.73;;;1.10;99.90;;;;;;5046109;28;20457;-74
2023/01/29 11:04:09;;;;;;;40.70;20.95;;;1.10;99.90;;;;;;5058498;28;20071;-74
2023/01/29 11:06:35;;;;;;;38.78;20.08;;;1.10;99.90;;;;;;5034767;28;20079;-74
2023/01/29 11:09:19;;;;;;;42.38;21.42;;;1.20;99.90;;;;;;4999666;28;20108;-73
2023/01/29 11:11:52;;;;;;;39.22;19.77;;;1.10;99.90;;;;;;5032398;28;20033;-77
2023/01/29 11:14:36;;;;;;;42.38;21.23;;;1.10;99.90;;;;;;5056430;28;20145;-77
2023/01/29 11:17:03;;;;;;;39.53;19.35;;;1.20;99.90;;;;;;5048386;28;20045;-74
2023/01/29 11:19:37;;;;;;;42.35;19.63;;;1.20;99.90;;;;;;5029149;28;20045;-74
2023/01/29 11:22:03;;;;;;;42.05;22.15;;;1.20;99.90;;;;;;5020096;28;20041;-75
2023/01/29 11:24:29;;;;;;;40.17;20.20;;;1.20;99.90;;;;;;5074850;28;20401;-74
2023/01/29 11:26:57;;;;;;;43.50;20.88;;;1.20;99.90;;;;;;5029357;28;20148;-75
2023/01/29 11:29:38;;;;;;;42.63;21.77;;;1.30;99.90;;;;;;5041611;28;20155;-75
2023/01/29 11:32:13;;;;;;;43.30;21.50;;;1.30;99.90;;;;;;5034466;28;20080;-75
2023/01/29 11:34:58;;;;;;;44.65;22.42;;;1.30;99.90;;;;;;5034650;28;20049;-74
2023/01/29 11:37:37;;;;;;;48.45;23.45;;;1.30;99.90;;;;;;5028817;28;20450;-74
2023/01/29 11:40:18;;;;;;;;;;;1.30;99.90;;;;;;5059580;28;20067;-74
2023/01/29 11:42:44;;;;;;;41.42;19.90;;;1.30;99.90;;;;;;5041862;28;20316;-75
2023/01/29 11:45:31;;;;;;;42.70;20.20;;;1.50;99.90;;;;;;5059165;28;20136;-73
2023/01/29 11:48:00;;;;;;;46.72;21.30;;;1.40;99.90;;;;;;5058236;28;20421;-73
2023/01/29 11:50:30;;;;;;;38.67;18.65;;;1.40;99.90;;;;;;5061857;28;20109;-74
2023/01/29 11:53:01;;;;;;;44.15;20.25;;;1.40;99.90;;;;;;5026113;28;20063;-74
2023/01/29 11:55:31;;;;;;;39.72;19.77;;;1.50;99.90;;;;;;5047897;28;20044;-74
2023/01/29 11:58:13;;;;;;;43.22;20.38;;;1.40;99.90;;;;;;5040910;28;20041;-74
2023/01/29 12:00:40;;;;;;;42.28;19.83;;;1.40;99.90;;;;;;5040767;28;20365;-74
2023/01/29 12:03:20;;;;;;;41.05;20.65;;;1.40;99.90;;;;;;5064310;28;20087;-74
2023/01/29 12:06:23;;;;;;;39.80;18.95;;;1.40;99.90;;;;;;5057028;28;20052;-76
2023/01/29 12:08:57;;;;;;;43.30;19.92;;;1.40;99.90;;;;;;5030810;28;20041;-75
2023/01/29 12:11:28;;;;;;;41.53;19.38;;;1.50;99.90;;;;;;5060087;28;20052;-73
2023/01/29 12:13:54;;;;;;;37.95;19.55;;;1.50;99.90;;;;;;5072939;28;20041;-74
2023/01/29 12:16:39;;;;;;;38.28;19.30;;;1.50;99.90;;;;;;5060793;28;20065;-74
2023/01/29 12:19:17;;;;;;;38.35;19.45;;;1.60;99.90;;;;;;5032486;28;20041;-72
2023/01/29 12:21:51;;;;;;;40.33;19.98;;;1.60;99.90;;;;;;5030410;28;20128;-73
2023/01/29 12:24:35;;;;;;;40.30;19.27;;;1.70;99.90;;;;;;5020273;28;20083;-74
2023/01/29 12:27:09;;;;;;;38.05;19.60;;;1.60;99.90;;;;;;5044864;28;20048;-73
2023/01/29 12:30:13;;;;;;;39.72;20.27;;;1.60;99.90;;;;;;5006288;28;20048;-73
2023/01/29 12:32:44;;;;;;;40.70;19.13;;;1.70;99.90;;;;;;5035111;28;20091;-73
2023/01/29 12:35:23;;;;;;;38.28;19.10;;;1.70;99.90;;;;;;5037743;28;20076;-74
2023/01/29 12:38:04;;;;;;;35.70;17.98;;;1.60;99.90;;;;;;5035617;28;20077;-73
2023/01/29 12:40:40;;;;;;;40.88;20.02;;;1.70;99.90;;;;;;5051664;28;20045;-75
2023/01/29 12:43:34;;;;;;;39.65;19.38;;;1.70;99.90;;;;;;5054519;28;20124;-73
2023/01/29 12:46:00;;;;;;;37.88;18.50;;;1.70;99.90;;;;;;5042000;28;20103;-73
2023/01/29 12:48:43;;;;;;;35.65;18.50;;;1.70;99.90;;;;;;5016692;28;20065;-73
2023/01/29 12:51:23;;;;;;;40.92;21.17;;;1.70;99.90;;;;;;5052467;28;20045;-73
2023/01/29 12:53:53;;;;;;;47.13;20.60;;;1.70;99.90;;;;;;5037646;28;20052;-74
2023/01/29 12:56:33;;;;;;;37.75;19.23;;;1.70;99.90;;;;;;5039061;28;20041;-73
2023/01/29 12:59:24;;;;;;;41.75;19.17;;;1.80;99.90;;;;;;5030799;28;20072;-74
2023/01/29 13:01:53;;;;;;;40.42;20.58;;;1.80;99.90;;;;;;5061036;28;20045;-73
2023/01/29 13:04:29;;;;;;;36.08;18.35;;;1.70;99.90;;;;;;5037271;28;20045;-74
2023/01/29 13:07:08;;;;;;;34.30;17.30;;;1.80;99.90;;;;;;5046159;28;20041;-74
2023/01/29 13:09:34;;;;;;;38.00;18.58;;;1.90;99.90;;;;;;5050020;28;20045;-73
2023/01/29 13:12:02;;;;;;;35.63;17.73;;;1.80;99.90;;;;;;5033705;28;20137;-73
2023/01/29 13:14:43;;;;;;;33.13;17.55;;;1.80;99.90;;;;;;5034944;28;20046;-73
2023/01/29 13:17:13;;;;;;;35.67;18.17;;;1.90;99.90;;;;;;5058247;28;20053;-75
2023/01/29 13:19:44;;;;;;;34.55;17.52;;;1.90;99.90;;;;;;5075110;28;20073;-76
2023/01/29 13:22:34;;;;;;;35.55;17.75;;;1.90;99.90;;;;;;5044393;28;20049;-75
2023/01/29 13:24:59;;;;;;;34.97;19.17;;;1.90;99.90;;;;;;5021339;28;20080;-75
2023/01/29 13:27:30;;;;;;;37.10;17.88;;;1.90;99.90;;;;;;5061482;28;20068;-76